sensor_id;sensor_type;location;lat;lon;timestamp;pressure;altitude;pressure_sealevel;temperature;humidity
77482;BME280;66582;43.004;-75.010;2023-06-10T00:02:12;99341.74;;;15.10;84.02
77482;BME280;66582;43.004;-75.010;2023-06-10T00:04:37;99345.23;;;16.56;78.07
77482;BME280;66582;43.004;-75.010;2023-06-10T00:07:03;99349.61;;;15.15;80.44
77482;BME280;66582;43.004;-75.010;2023-06-10T00:09:27;99346.31;;;15.29;83.16
77482;BME280;66582;43.004;-75.010;2023-06-10T00:11:52;99344.79;;;15.65;83.14
77482;BME280;66582;43.004;-75.010;2023-06-10T00:14:18;99349.51;;;15.35;82.55
77482;BME280;66582;43.004;-75.010;2023-06-10T00:16:43;99350.45;;;15.38;81.76
77482;BME280;66582;43.004;-75.010;2023-06-10T00:19:09;99346.60;;;15.14;84.43
77482;BME280;66582;43.004;-75.010;2023-06-10T00:21:35;99347.33;;;14.11;88.53
77482;BME280;66582;43.004;-75.010;2023-06-10T00:23:58;99350.35;;;14.28;86.31
77482;BME280;66582;43.004;-75.010;2023-06-10T00:26:24;99353.31;;;14.13;87.81
77482;BME280;66582;43.004;-75.010;2023-06-10T00:28:49;99353.97;;;13.61;91.64
77482;BME280;66582;43.004;-75.010;2023-06-10T00:31:14;99357.37;;;13.69;89.21
77482;BME280;66582;43.004;-75.010;2023-06-10T00:33:40;99354.46;;;14.81;87.06
77482;BME280;66582;43.004;-75.010;2023-06-10T00:36:05;99354.37;;;14.76;81.30
77482;BME280;66582;43.004;-75.010;2023-06-10T00:38:30;99357.24;;;15.33;76.74
77482;BME280;66582;43.004;-75.010;2023-06-10T00:40:55;99367.14;;;13.59;85.63
77482;BME280;66582;43.004;-75.010;2023-06-10T00:43:20;99371.98;;;13.48;87.30
77482;BME280;66582;43.004;-75.010;2023-06-10T00:45:45;99379.27;;;13.83;86.89
77482;BME280;66582;43.004;-75.010;2023-06-10T00:48:11;99374.66;;;14.68;84.12
77482;BME280;66582;43.004;-75.010;2023-06-10T00:50:36;99373.90;;;14.82;79.57
77482;BME280;66582;43.004;-75.010;2023-06-10T00:53:01;99378.14;;;14.30;81.30
77482;BME280;66582;43.004;-75.010;2023-06-10T00:55:26;99377.16;;;14.36;78.87
77482;BME280;66582;43.004;-75.010;2023-06-10T00:57:52;99372.84;;;16.00;72.15
77482;BME280;66582;43.004;-75.010;2023-06-10T01:00:18;99381.51;;;16.01;68.10
77482;BME280;66582;43.004;-75.010;2023-06-10T01:02:42;99384.78;;;15.55;67.72
77482;BME280;66582;43.004;-75.010;2023-06-10T01:05:07;99391.28;;;15.56;68.62
77482;BME280;66582;43.004;-75.010;2023-06-10T01:07:37;99387.24;;;16.53;65.22
77482;BME280;66582;43.004;-75.010;2023-06-10T01:10:02;99392.55;;;17.00;63.93
77482;BME280;66582;43.004;-75.010;2023-06-10T01:12:30;99398.32;;;15.37;69.85
77482;BME280;66582;43.004;-75.010;2023-06-10T01:14:48;99400.80;;;15.87;68.76
77482;BME280;66582;43.004;-75.010;2023-06-10T01:17:14;99407.03;;;14.46;76.72
77482;BME280;66582;43.004;-75.010;2023-06-10T01:19:39;99413.88;;;13.34;84.55
77482;BME280;66582;43.004;-75.010;2023-06-10T01:22:04;99416.79;;;13.78;81.78
77482;BME280;66582;43.004;-75.010;2023-06-10T01:24:28;99420.96;;;12.88;87.56
77482;BME280;66582;43.004;-75.010;2023-06-10T01:26:55;99425.46;;;12.71;88.83
77482;BME280;66582;43.004;-75.010;2023-06-10T01:29:21;99427.46;;;12.49;93.10
77482;BME280;66582;43.004;-75.010;2023-06-10T01:31:49;99434.54;;;12.58;91.36
77482;BME280;66582;43.004;-75.010;2023-06-10T01:34:12;99442.40;;;11.99;94.14
77482;BME280;66582;43.004;-75.010;2023-06-10T01:36:36;99441.11;;;12.26;96.12
77482;BME280;66582;43.004;-75.010;2023-06-10T01:39:00;99446.50;;;12.21;97.54
77482;BME280;66582;43.004;-75.010;2023-06-10T01:41:25;99446.62;;;13.01;93.11
77482;BME280;66582;43.004;-75.010;2023-06-10T01:43:51;99447.64;;;13.62;89.07
77482;BME280;66582;43.004;-75.010;2023-06-10T01:46:16;99447.85;;;14.16;84.20
77482;BME280;66582;43.004;-75.010;2023-06-10T01:48:42;99448.21;;;14.83;78.86
77482;BME280;66582;43.004;-75.010;2023-06-10T01:51:06;99448.23;;;14.95;76.51
77482;BME280;66582;43.004;-75.010;2023-06-10T01:53:32;99447.07;;;15.06;74.80
77482;BME280;66582;43.004;-75.010;2023-06-10T01:55:56;99448.65;;;15.67;72.01
77482;BME280;66582;43.004;-75.010;2023-06-10T01:58:21;99454.84;;;15.46;70.63
77482;BME280;66582;43.004;-75.010;2023-06-10T02:00:47;99461.56;;;15.76;70.82
77482;BME280;66582;43.004;-75.010;2023-06-10T02:03:12;99464.86;;;14.78;70.58
77482;BME280;66582;43.004;-75.010;2023-06-10T02:05:37;99455.30;;;16.51;65.42
77482;BME280;66582;43.004;-75.010;2023-06-10T02:08:02;99451.26;;;17.68;60.72
77482;BME280;66582;43.004;-75.010;2023-06-10T02:10:27;99458.01;;;16.01;64.90
77482;BME280;66582;43.004;-75.010;2023-06-10T02:12:53;99457.32;;;14.70;70.12
77482;BME280;66582;43.004;-75.010;2023-06-10T02:15:18;99459.86;;;13.95;76.14
77482;BME280;66582;43.004;-75.010;2023-06-10T02:17:44;99451.84;;;15.26;68.89
77482;BME280;66582;43.004;-75.010;2023-06-10T02:20:08;99447.11;;;16.48;63.95
77482;BME280;66582;43.004;-75.010;2023-06-10T02:22:34;99447.62;;;15.53;66.15
77482;BME280;66582;43.004;-75.010;2023-06-10T02:24:59;99447.07;;;15.81;64.40
77482;BME280;66582;43.004;-75.010;2023-06-10T02:27:24;99449.82;;;17.49;60.62
77482;BME280;66582;43.004;-75.010;2023-06-10T02:29:50;99454.36;;;16.16;62.07
77482;BME280;66582;43.004;-75.010;2023-06-10T02:32:15;99446.10;;;17.62;57.42
77482;BME280;66582;43.004;-75.010;2023-06-10T02:34:40;99446.06;;;17.75;56.39
77482;BME280;66582;43.004;-75.010;2023-06-10T02:37:05;99448.21;;;18.57;54.16
77482;BME280;66582;43.004;-75.010;2023-06-10T02:39:30;99448.32;;;18.74;53.06
77482;BME280;66582;43.004;-75.010;2023-06-10T02:41:55;99444.28;;;19.28;51.65
77482;BME280;66582;43.004;-75.010;2023-06-10T02:44:21;99448.11;;;18.60;52.61
77482;BME280;66582;43.004;-75.010;2023-06-10T02:46:47;99446.20;;;17.97;54.01
77482;BME280;66582;43.004;-75.010;2023-06-10T02:49:12;99453.62;;;15.37;61.38
77482;BME280;66582;43.004;-75.010;2023-06-10T02:51:36;99459.93;;;14.44;65.26
77482;BME280;66582;43.004;-75.010;2023-06-10T02:54:02;99454.59;;;15.49;64.11
77482;BME280;66582;43.004;-75.010;2023-06-10T02:56:28;99450.19;;;15.26;63.63
77482;BME280;66582;43.004;-75.010;2023-06-10T02:58:52;99455.64;;;12.87;69.67
77482;BME280;66582;43.004;-75.010;2023-06-10T03:01:17;99449.60;;;14.71;67.64
77482;BME280;66582;43.004;-75.010;2023-06-10T03:03:43;99441.61;;;16.18;62.48
77482;BME280;66582;43.004;-75.010;2023-06-10T03:06:08;99460.34;;;10.41;88.36
77482;BME280;66582;43.004;-75.010;2023-06-10T03:08:33;99454.38;;;10.92;88.22
77482;BME280;66582;43.004;-75.010;2023-06-10T03:10:57;99462.47;;;9.89;98.10
77482;BME280;66582;43.004;-75.010;2023-06-10T03:13:25;99463.46;;;9.86;99.23
77482;BME280;66582;43.004;-75.010;2023-06-10T03:15:49;99456.63;;;11.33;94.35
77482;BME280;66582;43.004;-75.010;2023-06-10T03:18:13;99457.06;;;12.44;84.56
77482;BME280;66582;43.004;-75.010;2023-06-10T03:20:39;99459.87;;;11.91;85.49
77482;BME280;66582;43.004;-75.010;2023-06-10T03:23:05;99459.14;;;12.83;84.52
77482;BME280;66582;43.004;-75.010;2023-06-10T03:25:30;99459.26;;;11.48;87.94
77482;BME280;66582;43.004;-75.010;2023-06-10T03:27:53;99463.04;;;9.04;100.00
77482;BME280;66582;43.004;-75.010;2023-06-10T03:30:19;99461.20;;;10.40;100.00
77482;BME280;66582;43.004;-75.010;2023-06-10T03:32:44;99452.15;;;12.93;86.12
77482;BME280;66582;43.004;-75.010;2023-06-10T03:35:10;99450.85;;;13.03;82.28
77482;BME280;66582;43.004;-75.010;2023-06-10T03:37:35;99447.13;;;13.64;77.85
77482;BME280;66582;43.004;-75.010;2023-06-10T03:40:00;99445.76;;;13.60;73.95
77482;BME280;66582;43.004;-75.010;2023-06-10T03:42:26;99457.23;;;9.60;98.20
77482;BME280;66582;43.004;-75.010;2023-06-10T03:44:51;99450.64;;;9.89;100.00
77482;BME280;66582;43.004;-75.010;2023-06-10T03:47:16;99454.32;;;9.40;100.00
77482;BME280;66582;43.004;-75.010;2023-06-10T03:49:41;99439.68;;;12.05;90.88
77482;BME280;66582;43.004;-75.010;2023-06-10T03:52:07;99442.65;;;11.60;92.41
77482;BME280;66582;43.004;-75.010;2023-06-10T03:54:33;99434.97;;;14.02;80.25
77482;BME280;66582;43.004;-75.010;2023-06-10T03:56:57;99429.89;;;12.92;80.41
77482;BME280;66582;43.004;-75.010;2023-06-10T03:59:23;99425.18;;;14.38;74.20
77482;BME280;66582;43.004;-75.010;2023-06-10T04:01:47;99427.09;;;13.82;74.28
77482;BME280;66582;43.004;-75.010;2023-06-10T04:04:15;99422.14;;;14.54;71.42
77482;BME280;66582;43.004;-75.010;2023-06-10T04:06:38;99423.14;;;13.88;73.85
77482;BME280;66582;43.004;-75.010;2023-06-10T04:09:05;99430.03;;;10.49;86.21
77482;BME280;66582;43.004;-75.010;2023-06-10T04:11:29;99426.55;;;12.29;83.10
77482;BME280;66582;43.004;-75.010;2023-06-10T04:13:54;99422.18;;;13.36;78.48
77482;BME280;66582;43.004;-75.010;2023-06-10T04:16:21;99429.91;;;9.96;89.17
77482;BME280;66582;43.004;-75.010;2023-06-10T04:18:45;99432.08;;;8.58;100.00
77482;BME280;66582;43.004;-75.010;2023-06-10T04:21:10;99427.57;;;9.87;100.00
77482;BME280;66582;43.004;-75.010;2023-06-10T04:23:35;99424.17;;;10.52;100.00
77482;BME280;66582;43.004;-75.010;2023-06-10T04:26:01;99424.83;;;10.61;100.00
77482;BME280;66582;43.004;-75.010;2023-06-10T04:28:26;99417.37;;;12.25;88.34
77482;BME280;66582;43.004;-75.010;2023-06-10T04:30:51;99420.70;;;9.57;95.54
77482;BME280;66582;43.004;-75.010;2023-06-10T04:33:16;99408.77;;;13.09;85.82
77482;BME280;66582;43.004;-75.010;2023-06-10T04:35:41;99412.90;;;10.75;89.31
77482;BME280;66582;43.004;-75.010;2023-06-10T04:38:07;99422.49;;;8.14;100.00
77482;BME280;66582;43.004;-75.010;2023-06-10T04:40:32;99418.81;;;9.18;99.60
77482;BME280;66582;43.004;-75.010;2023-06-10T04:42:57;99418.44;;;8.85;100.00
77482;BME280;66582;43.004;-75.010;2023-06-10T04:45:22;99417.48;;;9.39;100.00
77482;BME280;66582;43.004;-75.010;2023-06-10T04:47:47;99406.47;;;12.32;88.69
77482;BME280;66582;43.004;-75.010;2023-06-10T04:50:12;99404.34;;;13.41;82.30
77482;BME280;66582;43.004;-75.010;2023-06-10T04:52:37;99416.49;;;8.52;100.00
77482;BME280;66582;43.004;-75.010;2023-06-10T04:55:02;99422.94;;;7.36;100.00
77482;BME280;66582;43.004;-75.010;2023-06-10T04:57:28;99421.72;;;7.23;100.00
77482;BME280;66582;43.004;-75.010;2023-06-10T04:59:53;99417.20;;;8.10;100.00
77482;BME280;66582;43.004;-75.010;2023-06-10T05:02:18;99409.82;;;9.69;100.00
77482;BME280;66582;43.004;-75.010;2023-06-10T05:04:43;99400.87;;;10.96;100.00
77482;BME280;66582;43.004;-75.010;2023-06-10T05:07:08;99395.28;;;11.98;97.62
77482;BME280;66582;43.004;-75.010;2023-06-10T05:09:34;99392.21;;;13.50;86.92
77482;BME280;66582;43.004;-75.010;2023-06-10T05:11:59;99392.09;;;13.45;82.59
77482;BME280;66582;43.004;-75.010;2023-06-10T05:14:25;99384.36;;;14.24;78.37
77482;BME280;66582;43.004;-75.010;2023-06-10T05:16:50;99388.75;;;13.57;77.33
77482;BME280;66582;43.004;-75.010;2023-06-10T05:19:16;99389.82;;;13.86;78.14
77482;BME280;66582;43.004;-75.010;2023-06-10T05:21:40;99388.01;;;11.42;83.17
77482;BME280;66582;43.004;-75.010;2023-06-10T05:24:06;99405.57;;;7.30;100.00
77482;BME280;66582;43.004;-75.010;2023-06-10T05:26:31;99403.39;;;6.93;100.00
77482;BME280;66582;43.004;-75.010;2023-06-10T05:28:56;99403.58;;;6.82;100.00
77482;BME280;66582;43.004;-75.010;2023-06-10T05:31:21;99396.81;;;8.46;100.00
77482;BME280;66582;43.004;-75.010;2023-06-10T05:33:47;99383.21;;;10.76;100.00
77482;BME280;66582;43.004;-75.010;2023-06-10T05:36:13;99373.96;;;11.93;96.07
77482;BME280;66582;43.004;-75.010;2023-06-10T05:38:38;99368.39;;;14.11;86.67
77482;BME280;66582;43.004;-75.010;2023-06-10T05:41:04;99363.16;;;15.05;77.13
77482;BME280;66582;43.004;-75.010;2023-06-10T05:43:29;99364.87;;;14.35;75.47
77482;BME280;66582;43.004;-75.010;2023-06-10T05:45:54;99370.00;;;13.63;78.51
77482;BME280;66582;43.004;-75.010;2023-06-10T05:48:20;99365.17;;;15.03;74.55
77482;BME280;66582;43.004;-75.010;2023-06-10T05:50:45;99360.36;;;15.90;70.01
77482;BME280;66582;43.004;-75.010;2023-06-10T05:53:10;99366.85;;;14.18;70.30
77482;BME280;66582;43.004;-75.010;2023-06-10T05:55:35;99373.53;;;12.27;80.98
77482;BME280;66582;43.004;-75.010;2023-06-10T05:58:00;99379.78;;;11.55;87.51
77482;BME280;66582;43.004;-75.010;2023-06-10T06:00:25;99372.02;;;14.56;74.65
77482;BME280;66582;43.004;-75.010;2023-06-10T06:02:51;99367.30;;;15.41;69.53
77482;BME280;66582;43.004;-75.010;2023-06-10T06:05:15;99375.08;;;13.42;73.64
77482;BME280;66582;43.004;-75.010;2023-06-10T06:07:40;99369.23;;;15.03;68.41
77482;BME280;66582;43.004;-75.010;2023-06-10T06:10:07;99376.66;;;13.73;70.87
77482;BME280;66582;43.004;-75.010;2023-06-10T06:12:31;99378.23;;;13.93;69.34
77482;BME280;66582;43.004;-75.010;2023-06-10T06:14:56;99382.02;;;11.87;78.94
77482;BME280;66582;43.004;-75.010;2023-06-10T06:17:21;99397.49;;;7.24;100.00
77482;BME280;66582;43.004;-75.010;2023-06-10T06:19:46;99402.81;;;6.19;100.00
77482;BME280;66582;43.004;-75.010;2023-06-10T06:22:12;99402.51;;;6.14;100.00
77482;BME280;66582;43.004;-75.010;2023-06-10T06:24:36;99399.41;;;7.21;100.00
77482;BME280;66582;43.004;-75.010;2023-06-10T06:27:02;99398.44;;;6.81;100.00
77482;BME280;66582;43.004;-75.010;2023-06-10T06:29:29;99402.63;;;6.14;100.00
77482;BME280;66582;43.004;-75.010;2023-06-10T06:31:52;99396.46;;;7.55;100.00
77482;BME280;66582;43.004;-75.010;2023-06-10T06:34:19;99387.78;;;10.12;100.00
77482;BME280;66582;43.004;-75.010;2023-06-10T06:36:43;99383.93;;;11.08;97.69
77482;BME280;66582;43.004;-75.010;2023-06-10T06:39:09;99394.36;;;9.16;100.00
77482;BME280;66582;43.004;-75.010;2023-06-10T06:41:34;99382.94;;;10.90;94.05
77482;BME280;66582;43.004;-75.010;2023-06-10T06:44:00;99390.29;;;8.85;98.02
77482;BME280;66582;43.004;-75.010;2023-06-10T06:46:27;99396.38;;;7.05;100.00
77482;BME280;66582;43.004;-75.010;2023-06-10T06:48:51;99394.01;;;7.11;100.00
77482;BME280;66582;43.004;-75.010;2023-06-10T06:51:16;99385.74;;;9.76;100.00
77482;BME280;66582;43.004;-75.010;2023-06-10T06:53:41;99376.67;;;10.91;96.01
77482;BME280;66582;43.004;-75.010;2023-06-10T06:56:06;99378.81;;;11.38;92.02
77482;BME280;66582;43.004;-75.010;2023-06-10T06:58:32;99370.37;;;12.44;87.51
77482;BME280;66582;43.004;-75.010;2023-06-10T07:00:57;99365.32;;;13.24;82.89
77482;BME280;66582;43.004;-75.010;2023-06-10T07:03:22;99364.92;;;13.67;78.67
77482;BME280;66582;43.004;-75.010;2023-06-10T07:05:47;99368.16;;;10.90;85.38
77482;BME280;66582;43.004;-75.010;2023-06-10T07:08:13;99366.69;;;12.88;78.67
77482;BME280;66582;43.004;-75.010;2023-06-10T07:10:38;99372.66;;;12.79;79.59
77482;BME280;66582;43.004;-75.010;2023-06-10T07:13:03;99371.60;;;12.29;80.98
77482;BME280;66582;43.004;-75.010;2023-06-10T07:15:28;99376.31;;;11.35;83.15
77482;BME280;66582;43.004;-75.010;2023-06-10T07:17:53;99385.72;;;8.89;99.95
77482;BME280;66582;43.004;-75.010;2023-06-10T07:20:19;99369.25;;;11.79;88.44
77482;BME280;66582;43.004;-75.010;2023-06-10T07:22:44;99370.40;;;12.00;84.45
77482;BME280;66582;43.004;-75.010;2023-06-10T07:25:09;99371.00;;;11.53;85.77
77482;BME280;66582;43.004;-75.010;2023-06-10T07:27:34;99382.16;;;8.83;100.00
77482;BME280;66582;43.004;-75.010;2023-06-10T07:29:59;99380.33;;;9.58;98.34
77482;BME280;66582;43.004;-75.010;2023-06-10T07:32:25;99385.63;;;7.70;100.00
77482;BME280;66582;43.004;-75.010;2023-06-10T07:34:49;99386.37;;;7.56;100.00
77482;BME280;66582;43.004;-75.010;2023-06-10T07:37:15;99386.78;;;9.13;100.00
77482;BME280;66582;43.004;-75.010;2023-06-10T07:39:40;99381.37;;;10.23;97.22
77482;BME280;66582;43.004;-75.010;2023-06-10T07:42:06;99383.71;;;9.27;100.00
77482;BME280;66582;43.004;-75.010;2023-06-10T07:44:31;99385.48;;;8.40;100.00
77482;BME280;66582;43.004;-75.010;2023-06-10T07:46:56;99391.50;;;8.01;100.00
77482;BME280;66582;43.004;-75.010;2023-06-10T07:49:21;99397.78;;;6.87;100.00
77482;BME280;66582;43.004;-75.010;2023-06-10T07:51:47;99396.81;;;6.87;100.00
77482;BME280;66582;43.004;-75.010;2023-06-10T07:54:11;99401.00;;;6.77;100.00
77482;BME280;66582;43.004;-75.010;2023-06-10T07:56:36;99403.24;;;6.45;100.00
77482;BME280;66582;43.004;-75.010;2023-06-10T07:59:02;99402.77;;;5.51;100.00
77482;BME280;66582;43.004;-75.010;2023-06-10T08:01:27;99410.47;;;5.68;100.00
77482;BME280;66582;43.004;-75.010;2023-06-10T08:03:53;99413.36;;;5.78;100.00
77482;BME280;66582;43.004;-75.010;2023-06-10T08:06:17;99417.85;;;5.44;100.00
77482;BME280;66582;43.004;-75.010;2023-06-10T08:08:42;99419.49;;;5.44;100.00
77482;BME280;66582;43.004;-75.010;2023-06-10T08:11:08;99418.76;;;5.95;100.00
77482;BME280;66582;43.004;-75.010;2023-06-10T08:13:33;99415.43;;;5.90;100.00
77482;BME280;66582;43.004;-75.010;2023-06-10T08:15:58;99413.78;;;6.59;100.00
77482;BME280;66582;43.004;-75.010;2023-06-10T08:18:23;99417.50;;;6.58;100.00
77482;BME280;66582;43.004;-75.010;2023-06-10T08:20:48;99422.15;;;5.90;100.00
77482;BME280;66582;43.004;-75.010;2023-06-10T08:23:14;99418.13;;;5.42;100.00
77482;BME280;66582;43.004;-75.010;2023-06-10T08:25:38;99418.57;;;5.30;100.00
77482;BME280;66582;43.004;-75.010;2023-06-10T08:28:04;99417.81;;;5.18;100.00
77482;BME280;66582;43.004;-75.010;2023-06-10T08:30:29;99417.56;;;5.66;100.00
77482;BME280;66582;43.004;-75.010;2023-06-10T08:32:54;99417.89;;;5.09;100.00
77482;BME280;66582;43.004;-75.010;2023-06-10T08:35:19;99420.34;;;5.26;100.00
77482;BME280;66582;43.004;-75.010;2023-06-10T08:37:45;99417.65;;;5.27;100.00
77482;BME280;66582;43.004;-75.010;2023-06-10T08:40:12;99419.23;;;6.12;100.00
77482;BME280;66582;43.004;-75.010;2023-06-10T08:42:40;99416.39;;;7.35;100.00
77482;BME280;66582;43.004;-75.010;2023-06-10T08:45:02;99410.61;;;9.64;100.00
77482;BME280;66582;43.004;-75.010;2023-06-10T08:47:29;99400.58;;;12.14;100.00
77482;BME280;66582;43.004;-75.010;2023-06-10T08:49:52;99412.49;;;7.43;100.00
77482;BME280;66582;43.004;-75.010;2023-06-10T08:52:18;99425.20;;;5.55;100.00
77482;BME280;66582;43.004;-75.010;2023-06-10T08:54:46;99427.31;;;5.50;100.00
77482;BME280;66582;43.004;-75.010;2023-06-10T08:57:07;99427.38;;;4.90;100.00
77482;BME280;66582;43.004;-75.010;2023-06-10T08:59:32;99427.51;;;5.32;100.00
77482;BME280;66582;43.004;-75.010;2023-06-10T09:01:57;99424.71;;;5.25;100.00
77482;BME280;66582;43.004;-75.010;2023-06-10T09:04:24;99410.97;;;7.93;100.00
77482;BME280;66582;43.004;-75.010;2023-06-10T09:06:48;99408.77;;;8.70;100.00
77482;BME280;66582;43.004;-75.010;2023-06-10T09:09:14;99406.15;;;9.27;100.00
77482;BME280;66582;43.004;-75.010;2023-06-10T09:11:39;99406.18;;;10.07;100.00
77482;BME280;66582;43.004;-75.010;2023-06-10T09:14:03;99411.06;;;9.57;100.00
77482;BME280;66582;43.004;-75.010;2023-06-10T09:16:28;99412.77;;;8.83;100.00
77482;BME280;66582;43.004;-75.010;2023-06-10T09:18:53;99405.07;;;10.45;100.00
77482;BME280;66582;43.004;-75.010;2023-06-10T09:21:18;99414.32;;;10.14;100.00
77482;BME280;66582;43.004;-75.010;2023-06-10T09:23:44;99411.49;;;10.55;99.94
77482;BME280;66582;43.004;-75.010;2023-06-10T09:26:10;99410.76;;;10.88;97.60
77482;BME280;66582;43.004;-75.010;2023-06-10T09:28:34;99413.94;;;11.96;94.06
77482;BME280;66582;43.004;-75.010;2023-06-10T09:31:04;99416.72;;;11.12;95.05
77482;BME280;66582;43.004;-75.010;2023-06-10T09:33:26;99421.42;;;10.61;93.58
77482;BME280;66582;43.004;-75.010;2023-06-10T09:35:50;99417.83;;;13.18;86.17
77482;BME280;66582;43.004;-75.010;2023-06-10T09:38:19;99436.16;;;9.39;93.20
77482;BME280;66582;43.004;-75.010;2023-06-10T09:40:49;99432.50;;;11.30;89.09
77482;BME280;66582;43.004;-75.010;2023-06-10T09:43:06;99452.79;;;8.20;100.00
77482;BME280;66582;43.004;-75.010;2023-06-10T09:45:32;99455.20;;;10.10;93.22
77482;BME280;66582;43.004;-75.010;2023-06-10T09:47:57;99460.88;;;7.24;100.00
77482;BME280;66582;43.004;-75.010;2023-06-10T09:50:22;99453.42;;;10.92;93.63
77482;BME280;66582;43.004;-75.010;2023-06-10T09:52:47;99460.76;;;10.69;92.15
77482;BME280;66582;43.004;-75.010;2023-06-10T09:55:11;99466.49;;;9.20;94.03
77482;BME280;66582;43.004;-75.010;2023-06-10T09:57:36;99484.07;;;5.23;100.00
77482;BME280;66582;43.004;-75.010;2023-06-10T10:00:05;99491.73;;;4.70;100.00
77482;BME280;66582;43.004;-75.010;2023-06-10T10:02:27;99488.96;;;5.46;100.00
77482;BME280;66582;43.004;-75.010;2023-06-10T10:04:52;99490.31;;;5.15;100.00
77482;BME280;66582;43.004;-75.010;2023-06-10T10:07:17;99484.69;;;5.53;100.00
77482;BME280;66582;43.004;-75.010;2023-06-10T10:09:43;99490.10;;;5.52;100.00
77482;BME280;66582;43.004;-75.010;2023-06-10T10:12:11;99482.28;;;7.85;100.00
77482;BME280;66582;43.004;-75.010;2023-06-10T10:14:33;99486.49;;;7.45;100.00
77482;BME280;66582;43.004;-75.010;2023-06-10T10:17:00;99493.20;;;5.98;100.00
77482;BME280;66582;43.004;-75.010;2023-06-10T10:19:28;99499.40;;;5.41;100.00
77482;BME280;66582;43.004;-75.010;2023-06-10T10:21:52;99491.40;;;5.73;100.00
77482;BME280;66582;43.004;-75.010;2023-06-10T10:24:18;99492.88;;;5.78;100.00
77482;BME280;66582;43.004;-75.010;2023-06-10T10:26:39;99491.06;;;5.77;100.00
77482;BME280;66582;43.004;-75.010;2023-06-10T10:29:11;99478.65;;;7.89;100.00
77482;BME280;66582;43.004;-75.010;2023-06-10T10:31:31;99467.28;;;9.33;100.00
77482;BME280;66582;43.004;-75.010;2023-06-10T10:33:57;99482.40;;;6.83;100.00
77482;BME280;66582;43.004;-75.010;2023-06-10T10:36:19;99477.49;;;7.39;100.00
77482;BME280;66582;43.004;-75.010;2023-06-10T10:38:46;99475.74;;;9.99;100.00
77482;BME280;66582;43.004;-75.010;2023-06-10T10:41:09;99469.25;;;12.21;100.00
77482;BME280;66582;43.004;-75.010;2023-06-10T10:43:35;99465.22;;;12.41;97.03
77482;BME280;66582;43.004;-75.010;2023-06-10T10:46:00;99468.95;;;12.92;91.48
77482;BME280;66582;43.004;-75.010;2023-06-10T10:48:26;99479.26;;;11.76;96.45
77482;BME280;66582;43.004;-75.010;2023-06-10T10:50:56;99481.45;;;13.03;95.02
77482;BME280;66582;43.004;-75.010;2023-06-10T10:53:20;99476.70;;;14.20;88.05
77482;BME280;66582;43.004;-75.010;2023-06-10T10:55:41;99480.32;;;12.34;89.95
77482;BME280;66582;43.004;-75.010;2023-06-10T10:58:07;99480.99;;;13.66;87.51
77482;BME280;66582;43.004;-75.010;2023-06-10T11:00:32;99482.44;;;13.08;88.50
77482;BME280;66582;43.004;-75.010;2023-06-10T11:02:59;99492.82;;;10.79;95.44
77482;BME280;66582;43.004;-75.010;2023-06-10T11:05:32;99485.87;;;12.87;92.01
77482;BME280;66582;43.004;-75.010;2023-06-10T11:07:52;99499.38;;;10.14;99.79
77482;BME280;66582;43.004;-75.010;2023-06-10T11:10:13;99507.22;;;9.79;100.00
77482;BME280;66582;43.004;-75.010;2023-06-10T11:15:02;99508.95;;;12.11;96.33
77482;BME280;66582;43.004;-75.010;2023-06-10T11:17:27;99511.44;;;14.44;87.45
77482;BME280;66582;43.004;-75.010;2023-06-10T11:19:52;99507.15;;;15.83;81.35
77482;BME280;66582;43.004;-75.010;2023-06-10T11:22:18;99513.66;;;15.26;81.47
77482;BME280;66582;43.004;-75.010;2023-06-10T11:24:44;99505.56;;;16.04;75.32
77482;BME280;66582;43.004;-75.010;2023-06-10T11:27:18;99526.74;;;9.80;100.00
77482;BME280;66582;43.004;-75.010;2023-06-10T11:29:33;99526.36;;;9.18;100.00
77482;BME280;66582;43.004;-75.010;2023-06-10T11:31:58;99528.54;;;7.64;100.00
77482;BME280;66582;43.004;-75.010;2023-06-10T11:34:24;99533.20;;;8.15;100.00
77482;BME280;66582;43.004;-75.010;2023-06-10T11:36:48;99529.25;;;10.86;100.00
77482;BME280;66582;43.004;-75.010;2023-06-10T11:39:14;99520.05;;;12.21;100.00
77482;BME280;66582;43.004;-75.010;2023-06-10T11:41:40;99523.22;;;12.38;100.00
77482;BME280;66582;43.004;-75.010;2023-06-10T11:44:07;99525.52;;;14.38;96.62
77482;BME280;66582;43.004;-75.010;2023-06-10T11:46:29;99532.29;;;13.71;95.53
77482;BME280;66582;43.004;-75.010;2023-06-10T11:48:56;99529.04;;;13.95;93.06
77482;BME280;66582;43.004;-75.010;2023-06-10T11:51:20;99522.14;;;16.05;84.76
77482;BME280;66582;43.004;-75.010;2023-06-10T11:53:45;99531.51;;;14.84;84.99
77482;BME280;66582;43.004;-75.010;2023-06-10T11:56:10;99529.22;;;16.46;77.81
77482;BME280;66582;43.004;-75.010;2023-06-10T11:58:35;99532.04;;;16.72;76.91
77482;BME280;66582;43.004;-75.010;2023-06-10T12:01:00;99529.64;;;16.90;74.53
77482;BME280;66582;43.004;-75.010;2023-06-10T12:03:26;99538.80;;;15.75;77.37
77482;BME280;66582;43.004;-75.010;2023-06-10T12:05:56;99545.71;;;13.91;86.18
77482;BME280;66582;43.004;-75.010;2023-06-10T12:08:15;99543.51;;;15.29;82.93
77482;BME280;66582;43.004;-75.010;2023-06-10T12:10:42;99536.05;;;16.07;77.30
77482;BME280;66582;43.004;-75.010;2023-06-10T12:13:06;99532.48;;;16.65;76.99
77482;BME280;66582;43.004;-75.010;2023-06-10T12:15:31;99543.86;;;15.50;79.20
77482;BME280;66582;43.004;-75.010;2023-06-10T12:17:57;99549.48;;;15.01;82.96
77482;BME280;66582;43.004;-75.010;2023-06-10T12:20:28;99544.90;;;15.95;80.93
77482;BME280;66582;43.004;-75.010;2023-06-10T12:22:47;99544.99;;;14.94;81.41
77482;BME280;66582;43.004;-75.010;2023-06-10T12:25:12;99551.79;;;11.44;95.44
77482;BME280;66582;43.004;-75.010;2023-06-10T12:27:40;99551.45;;;12.28;90.40
77482;BME280;66582;43.004;-75.010;2023-06-10T12:30:04;99553.61;;;13.34;93.47
77482;BME280;66582;43.004;-75.010;2023-06-10T12:32:39;99546.30;;;15.43;80.68